sensor_id;sensor_type;location;lat;lon;timestamp;temperature;humidity
39925;DHT22;25592;49.986;11.618;2022-10-17T00:02:21;17.60;99.90
39925;DHT22;25592;49.986;11.618;2022-10-17T00:05:06;17.60;99.90
39925;DHT22;25592;49.986;11.618;2022-10-17T00:07:52;17.60;99.90
39925;DHT22;25592;49.986;11.618;2022-10-17T00:10:38;17.50;99.90
39925;DHT22;25592;49.986;11.618;2022-10-17T00:13:25;17.50;99.90
39925;DHT22;25592;49.986;11.618;2022-10-17T00:16:10;17.50;99.90
39925;DHT22;25592;49.986;11.618;2022-10-17T00:18:56;17.50;99.90
39925;DHT22;25592;49.986;11.618;2022-10-17T00:21:41;17.50;99.90
39925;DHT22;25592;49.986;11.618;2022-10-17T00:24:28;17.50;99.90
39925;DHT22;25592;49.986;11.618;2022-10-17T00:27:13;17.50;99.90
39925;DHT22;25592;49.986;11.618;2022-10-17T00:29:59;17.50;99.90
39925;DHT22;25592;49.986;11.618;2022-10-17T00:32:44;17.50;99.90
39925;DHT22;25592;49.986;11.618;2022-10-17T00:35:30;17.40;99.90
39925;DHT22;25592;49.986;11.618;2022-10-17T00:38:15;17.50;99.90
39925;DHT22;25592;49.986;11.618;2022-10-17T00:41:01;17.50;99.90
39925;DHT22;25592;49.986;11.618;2022-10-17T00:46:49;17.40;99.90
39925;DHT22;25592;49.986;11.618;2022-10-17T00:49:35;17.40;99.90
39925;DHT22;25592;49.986;11.618;2022-10-17T00:52:26;17.40;99.90
39925;DHT22;25592;49.986;11.618;2022-10-17T00:55:19;17.40;99.90
39925;DHT22;25592;49.986;11.618;2022-10-17T00:58:05;17.40;99.90
39925;DHT22;25592;49.986;11.618;2022-10-17T01:00:50;17.40;99.90
39925;DHT22;25592;49.986;11.618;2022-10-17T01:03:36;17.30;99.90
39925;DHT22;25592;49.986;11.618;2022-10-17T01:06:21;17.20;99.90
39925;DHT22;25592;49.986;11.618;2022-10-17T01:09:07;17.20;99.90
39925;DHT22;25592;49.986;11.618;2022-10-17T01:18:20;17.10;99.90
39925;DHT22;25592;49.986;11.618;2022-10-17T01:21:26;17.00;99.90
39925;DHT22;25592;49.986;11.618;2022-10-17T01:27:41;17.10;99.90
39925;DHT22;25592;49.986;11.618;2022-10-17T01:30:58;17.10;99.90
39925;DHT22;25592;49.986;11.618;2022-10-17T01:34:01;17.10;99.90
39925;DHT22;25592;49.986;11.618;2022-10-17T01:36:53;17.10;99.90
39925;DHT22;25592;49.986;11.618;2022-10-17T01:42:37;17.10;99.90
39925;DHT22;25592;49.986;11.618;2022-10-17T01:48:17;17.10;99.90
39925;DHT22;25592;49.986;11.618;2022-10-17T01:51:20;17.00;99.90
39925;DHT22;25592;49.986;11.618;2022-10-17T01:54:39;17.00;99.90
39925;DHT22;25592;49.986;11.618;2022-10-17T01:57:35;17.00;99.90
39925;DHT22;25592;49.986;11.618;2022-10-17T02:00:23;17.00;99.90
39925;DHT22;25592;49.986;11.618;2022-10-17T02:03:14;17.00;99.90
39925;DHT22;25592;49.986;11.618;2022-10-17T02:06:01;16.90;99.90
39925;DHT22;25592;49.986;11.618;2022-10-17T02:08:48;16.90;99.90
39925;DHT22;25592;49.986;11.618;2022-10-17T02:11:34;16.90;99.90
39925;DHT22;25592;49.986;11.618;2022-10-17T02:14:30;16.90;99.90
39925;DHT22;25592;49.986;11.618;2022-10-17T02:20:36;16.90;99.90
39925;DHT22;25592;49.986;11.618;2022-10-17T02:23:51;16.90;99.90
39925;DHT22;25592;49.986;11.618;2022-10-17T02:26:51;16.90;99.90
39925;DHT22;25592;49.986;11.618;2022-10-17T02:29:46;16.90;99.90
39925;DHT22;25592;49.986;11.618;2022-10-17T02:32:42;16.90;99.90
39925;DHT22;25592;49.986;11.618;2022-10-17T02:35:39;16.80;99.90
39925;DHT22;25592;49.986;11.618;2022-10-17T02:38:26;16.80;99.90
39925;DHT22;25592;49.986;11.618;2022-10-17T02:41:14;16.80;99.90
39925;DHT22;25592;49.986;11.618;2022-10-17T02:44:01;16.80;99.90
39925;DHT22;25592;49.986;11.618;2022-10-17T02:46:52;16.80;99.90
39925;DHT22;25592;49.986;11.618;2022-10-17T02:49:43;16.70;99.90
39925;DHT22;25592;49.986;11.618;2022-10-17T02:55:40;16.70;99.90
39925;DHT22;25592;49.986;11.618;2022-10-17T02:58:30;16.70;99.90
39925;DHT22;25592;49.986;11.618;2022-10-17T03:01:17;16.70;99.90
39925;DHT22;25592;49.986;11.618;2022-10-17T03:04:12;16.70;99.90
39925;DHT22;25592;49.986;11.618;2022-10-17T03:06:58;16.60;99.90
39925;DHT22;25592;49.986;11.618;2022-10-17T03:09:43;16.60;99.90
39925;DHT22;25592;49.986;11.618;2022-10-17T03:12:29;16.60;99.90
39925;DHT22;25592;49.986;11.618;2022-10-17T03:15:15;16.60;99.90
39925;DHT22;25592;49.986;11.618;2022-10-17T03:18:00;16.60;99.90
39925;DHT22;25592;49.986;11.618;2022-10-17T03:20:45;16.60;99.90
39925;DHT22;25592;49.986;11.618;2022-10-17T03:23:31;16.60;99.90
39925;DHT22;25592;49.986;11.618;2022-10-17T03:26:16;16.60;99.90
39925;DHT22;25592;49.986;11.618;2022-10-17T03:29:02;16.60;99.90
39925;DHT22;25592;49.986;11.618;2022-10-17T03:31:48;16.60;99.90
39925;DHT22;25592;49.986;11.618;2022-10-17T03:34:33;16.60;99.90
39925;DHT22;25592;49.986;11.618;2022-10-17T03:37:19;16.60;99.90
39925;DHT22;25592;49.986;11.618;2022-10-17T03:40:04;16.50;99.90
39925;DHT22;25592;49.986;11.618;2022-10-17T03:42:50;16.50;99.90
39925;DHT22;25592;49.986;11.618;2022-10-17T03:45:35;16.50;99.90
39925;DHT22;25592;49.986;11.618;2022-10-17T03:48:21;16.50;99.90
39925;DHT22;25592;49.986;11.618;2022-10-17T03:51:08;16.40;99.90
39925;DHT22;25592;49.986;11.618;2022-10-17T03:53:53;16.40;99.90
39925;DHT22;25592;49.986;11.618;2022-10-17T03:56:39;16.40;99.90
39925;DHT22;25592;49.986;11.618;2022-10-17T03:59:24;16.50;99.90
39925;DHT22;25592;49.986;11.618;2022-10-17T04:02:10;16.50;99.90
39925;DHT22;25592;49.986;11.618;2022-10-17T04:04:55;16.40;99.90
39925;DHT22;25592;49.986;11.618;2022-10-17T04:07:40;16.40;99.90
39925;DHT22;25592;49.986;11.618;2022-10-17T04:10:26;16.40;99.90
39925;DHT22;25592;49.986;11.618;2022-10-17T04:13:11;16.40;99.90
39925;DHT22;25592;49.986;11.618;2022-10-17T04:16:08;16.40;99.90
39925;DHT22;25592;49.986;11.618;2022-10-17T04:18:55;16.30;99.90
39925;DHT22;25592;49.986;11.618;2022-10-17T04:21:41;16.30;99.90
39925;DHT22;25592;49.986;11.618;2022-10-17T04:24:27;16.30;99.90
39925;DHT22;25592;49.986;11.618;2022-10-17T04:27:13;16.40;99.90
39925;DHT22;25592;49.986;11.618;2022-10-17T04:29:58;16.30;99.90
39925;DHT22;25592;49.986;11.618;2022-10-17T04:32:44;16.30;99.90
39925;DHT22;25592;49.986;11.618;2022-10-17T04:35:30;16.30;99.90
39925;DHT22;25592;49.986;11.618;2022-10-17T04:38:15;16.30;99.90
39925;DHT22;25592;49.986;11.618;2022-10-17T04:41:03;16.20;99.90
39925;DHT22;25592;49.986;11.618;2022-10-17T04:43:49;16.20;99.90
39925;DHT22;25592;49.986;11.618;2022-10-17T04:46:35;16.20;99.90
39925;DHT22;25592;49.986;11.618;2022-10-17T04:49:21;16.20;99.90
39925;DHT22;25592;49.986;11.618;2022-10-17T04:52:06;16.20;99.90
39925;DHT22;25592;49.986;11.618;2022-10-17T04:54:52;16.20;99.90
39925;DHT22;25592;49.986;11.618;2022-10-17T04:57:37;16.30;99.90
39925;DHT22;25592;49.986;11.618;2022-10-17T05:00:23;16.40;99.90
39925;DHT22;25592;49.986;11.618;2022-10-17T05:03:08;16.40;99.90
39925;DHT22;25592;49.986;11.618;2022-10-17T05:05:54;16.40;99.90
39925;DHT22;25592;49.986;11.618;2022-10-17T05:08:39;16.30;99.90
39925;DHT22;25592;49.986;11.618;2022-10-17T05:11:27;16.20;99.90
39925;DHT22;25592;49.986;11.618;2022-10-17T05:14:12;16.20;99.90
39925;DHT22;25592;49.986;11.618;2022-10-17T05:16:58;16.20;99.90
39925;DHT22;25592;49.986;11.618;2022-10-17T05:19:43;16.20;99.90
39925;DHT22;25592;49.986;11.618;2022-10-17T05:22:29;16.20;99.90
39925;DHT22;25592;49.986;11.618;2022-10-17T05:25:15;16.10;99.90
39925;DHT22;25592;49.986;11.618;2022-10-17T05:28:00;16.10;99.90
39925;DHT22;25592;49.986;11.618;2022-10-17T05:30:45;16.10;99.90
39925;DHT22;25592;49.986;11.618;2022-10-17T05:33:31;16.10;99.90
39925;DHT22;25592;49.986;11.618;2022-10-17T05:36:16;16.00;99.90
39925;DHT22;25592;49.986;11.618;2022-10-17T05:39:02;16.00;99.90
39925;DHT22;25592;49.986;11.618;2022-10-17T05:41:47;16.00;99.90
39925;DHT22;25592;49.986;11.618;2022-10-17T05:44:32;15.90;99.90
39925;DHT22;25592;49.986;11.618;2022-10-17T05:47:18;15.90;99.90
39925;DHT22;25592;49.986;11.618;2022-10-17T05:50:03;15.90;99.90
39925;DHT22;25592;49.986;11.618;2022-10-17T05:52:52;15.90;99.90
39925;DHT22;25592;49.986;11.618;2022-10-17T05:55:37;15.90;99.90
39925;DHT22;25592;49.986;11.618;2022-10-17T05:58:23;15.90;99.90
39925;DHT22;25592;49.986;11.618;2022-10-17T06:01:29;15.90;99.90
39925;DHT22;25592;49.986;11.618;2022-10-17T06:04:14;15.90;99.90
39925;DHT22;25592;49.986;11.618;2022-10-17T06:06:59;15.90;99.90
39925;DHT22;25592;49.986;11.618;2022-10-17T06:09:45;15.90;99.90
39925;DHT22;25592;49.986;11.618;2022-10-17T06:12:35;15.90;99.90
39925;DHT22;25592;49.986;11.618;2022-10-17T06:15:21;15.90;99.90
39925;DHT22;25592;49.986;11.618;2022-10-17T06:18:06;15.90;99.90
39925;DHT22;25592;49.986;11.618;2022-10-17T06:20:51;16.00;99.90
39925;DHT22;25592;49.986;11.618;2022-10-17T06:23:37;16.00;99.90
39925;DHT22;25592;49.986;11.618;2022-10-17T06:26:22;16.00;99.90
39925;DHT22;25592;49.986;11.618;2022-10-17T06:29:08;16.00;99.90
39925;DHT22;25592;49.986;11.618;2022-10-17T06:31:54;16.00;99.90
39925;DHT22;25592;49.986;11.618;2022-10-17T06:34:39;16.00;99.90
39925;DHT22;25592;49.986;11.618;2022-10-17T06:37:24;16.10;99.90
39925;DHT22;25592;49.986;11.618;2022-10-17T06:40:11;16.10;99.90
39925;DHT22;25592;49.986;11.618;2022-10-17T06:42:56;16.10;99.90
39925;DHT22;25592;49.986;11.618;2022-10-17T06:45:42;16.10;99.90
39925;DHT22;25592;49.986;11.618;2022-10-17T06:48:29;16.10;99.90
39925;DHT22;25592;49.986;11.618;2022-10-17T06:51:14;16.20;99.90
39925;DHT22;25592;49.986;11.618;2022-10-17T06:54:00;16.20;99.90
39925;DHT22;25592;49.986;11.618;2022-10-17T06:56:45;16.30;99.90
39925;DHT22;25592;49.986;11.618;2022-10-17T06:59:30;16.30;99.90
39925;DHT22;25592;49.986;11.618;2022-10-17T07:02:16;16.40;99.90
39925;DHT22;25592;49.986;11.618;2022-10-17T07:05:01;16.40;99.90
39925;DHT22;25592;49.986;11.618;2022-10-17T07:07:47;16.40;99.90
39925;DHT22;25592;49.986;11.618;2022-10-17T07:10:36;16.40;99.90
39925;DHT22;25592;49.986;11.618;2022-10-17T07:13:22;16.50;99.90
39925;DHT22;25592;49.986;11.618;2022-10-17T07:16:08;16.50;99.90
39925;DHT22;25592;49.986;11.618;2022-10-17T07:18:54;16.50;99.90
39925;DHT22;25592;49.986;11.618;2022-10-17T07:21:40;16.60;99.90
39925;DHT22;25592;49.986;11.618;2022-10-17T07:24:25;16.70;99.90
39925;DHT22;25592;49.986;11.618;2022-10-17T07:27:12;16.70;99.90
39925;DHT22;25592;49.986;11.618;2022-10-17T07:29:57;16.80;99.90
39925;DHT22;25592;49.986;11.618;2022-10-17T07:32:43;16.90;99.90
39925;DHT22;25592;49.986;11.618;2022-10-17T07:35:28;17.00;99.90
39925;DHT22;25592;49.986;11.618;2022-10-17T07:38:13;17.10;99.90
39925;DHT22;25592;49.986;11.618;2022-10-17T07:41:01;17.20;99.90
39925;DHT22;25592;49.986;11.618;2022-10-17T07:43:46;17.30;99.90
39925;DHT22;25592;49.986;11.618;2022-10-17T07:46:32;17.40;99.90
39925;DHT22;25592;49.986;11.618;2022-10-17T07:49:17;17.50;99.90
39925;DHT22;25592;49.986;11.618;2022-10-17T07:52:02;17.60;99.90
39925;DHT22;25592;49.986;11.618;2022-10-17T07:54:48;17.70;99.90
39925;DHT22;25592;49.986;11.618;2022-10-17T07:57:33;17.70;99.90
39925;DHT22;25592;49.986;11.618;2022-10-17T08:00:19;17.80;99.90
39925;DHT22;25592;49.986;11.618;2022-10-17T08:03:05;17.80;99.90
39925;DHT22;25592;49.986;11.618;2022-10-17T08:05:50;17.90;99.90
39925;DHT22;25592;49.986;11.618;2022-10-17T08:08:35;18.00;99.90
39925;DHT22;25592;49.986;11.618;2022-10-17T08:11:21;18.20;99.90
39925;DHT22;25592;49.986;11.618;2022-10-17T08:14:07;18.30;99.90
39925;DHT22;25592;49.986;11.618;2022-10-17T08:16:53;18.30;99.90
39925;DHT22;25592;49.986;11.618;2022-10-17T08:19:39;18.30;99.90
39925;DHT22;25592;49.986;11.618;2022-10-17T08:22:25;18.30;99.90
39925;DHT22;25592;49.986;11.618;2022-10-17T08:25:11;18.40;99.90
39925;DHT22;25592;49.986;11.618;2022-10-17T08:27:57;18.40;99.90
39925;DHT22;25592;49.986;11.618;2022-10-17T08:30:42;18.40;99.90
39925;DHT22;25592;49.986;11.618;2022-10-17T08:33:27;18.60;99.90
39925;DHT22;25592;49.986;11.618;2022-10-17T08:36:14;18.60;99.90
39925;DHT22;25592;49.986;11.618;2022-10-17T08:39:05;18.60;99.90
39925;DHT22;25592;49.986;11.618;2022-10-17T08:45:10;18.80;99.90
39925;DHT22;25592;49.986;11.618;2022-10-17T08:48:01;18.90;99.90
39925;DHT22;25592;49.986;11.618;2022-10-17T08:51:12;19.00;99.90
39925;DHT22;25592;49.986;11.618;2022-10-17T08:54:01;19.00;99.90
39925;DHT22;25592;49.986;11.618;2022-10-17T08:56:53;19.10;99.90
39925;DHT22;25592;49.986;11.618;2022-10-17T08:59:39;19.30;99.90
39925;DHT22;25592;49.986;11.618;2022-10-17T09:02:52;19.20;99.90
39925;DHT22;25592;49.986;11.618;2022-10-17T09:09:36;19.50;99.90
39925;DHT22;25592;49.986;11.618;2022-10-17T09:18:35;20.00;99.90
39925;DHT22;25592;49.986;11.618;2022-10-17T09:21:26;19.90;99.90
39925;DHT22;25592;49.986;11.618;2022-10-17T09:25:05;20.00;99.90
39925;DHT22;25592;49.986;11.618;2022-10-17T09:27:50;20.30;99.90
39925;DHT22;25592;49.986;11.618;2022-10-17T09:30:43;20.40;99.90
39925;DHT22;25592;49.986;11.618;2022-10-17T09:33:37;20.50;99.90
39925;DHT22;25592;49.986;11.618;2022-10-17T09:36:39;20.40;99.90
39925;DHT22;25592;49.986;11.618;2022-10-17T09:39:25;20.60;99.90
39925;DHT22;25592;49.986;11.618;2022-10-17T09:42:14;20.60;99.90
39925;DHT22;25592;49.986;11.618;2022-10-17T09:45:16;20.80;99.90
39925;DHT22;25592;49.986;11.618;2022-10-17T09:48:34;20.90;99.90
39925;DHT22;25592;49.986;11.618;2022-10-17T09:51:21;21.00;99.90
39925;DHT22;25592;49.986;11.618;2022-10-17T09:54:23;21.00;99.90
39925;DHT22;25592;49.986;11.618;2022-10-17T09:57:11;21.10;99.90
39925;DHT22;25592;49.986;11.618;2022-10-17T10:00:00;21.30;99.90
39925;DHT22;25592;49.986;11.618;2022-10-17T10:02:45;21.30;99.90
39925;DHT22;25592;49.986;11.618;2022-10-17T10:05:31;21.30;99.90
39925;DHT22;25592;49.986;11.618;2022-10-17T10:08:18;21.40;99.90
39925;DHT22;25592;49.986;11.618;2022-10-17T10:11:06;21.30;99.90
39925;DHT22;25592;49.986;11.618;2022-10-17T10:13:53;21.60;99.90
39925;DHT22;25592;49.986;11.618;2022-10-17T10:16:42;21.70;99.90
39925;DHT22;25592;49.986;11.618;2022-10-17T10:19:36;21.80;99.90
39925;DHT22;25592;49.986;11.618;2022-10-17T10:22:22;22.00;99.90
39925;DHT22;25592;49.986;11.618;2022-10-17T10:25:15;22.00;99.90
39925;DHT22;25592;49.986;11.618;2022-10-17T10:28:00;22.10;99.90
39925;DHT22;25592;49.986;11.618;2022-10-17T10:30:48;22.30;99.90
39925;DHT22;25592;49.986;11.618;2022-10-17T10:33:40;22.20;99.90
39925;DHT22;25592;49.986;11.618;2022-10-17T10:36:51;22.20;99.90
39925;DHT22;25592;49.986;11.618;2022-10-17T10:39:47;22.40;99.90
39925;DHT22;25592;49.986;11.618;2022-10-17T10:42:38;22.50;99.90
39925;DHT22;25592;49.986;11.618;2022-10-17T10:45:27;22.70;99.90
39925;DHT22;25592;49.986;11.618;2022-10-17T10:48:36;22.80;99.90
39925;DHT22;25592;49.986;11.618;2022-10-17T10:51:37;22.80;99.90
39925;DHT22;25592;49.986;11.618;2022-10-17T10:54:29;22.80;99.90
39925;DHT22;25592;49.986;11.618;2022-10-17T10:57:19;23.00;99.90
39925;DHT22;25592;49.986;11.618;2022-10-17T11:03:14;23.20;99.90
39925;DHT22;25592;49.986;11.618;2022-10-17T11:06:05;23.20;99.90
39925;DHT22;25592;49.986;11.618;2022-10-17T11:12:24;23.30;99.90
39925;DHT22;25592;49.986;11.618;2022-10-17T11:15:28;23.50;99.90
39925;DHT22;25592;49.986;11.618;2022-10-17T11:18:40;23.50;99.90
39925;DHT22;25592;49.986;11.618;2022-10-17T11:21:47;23.60;99.90
39925;DHT22;25592;49.986;11.618;2022-10-17T11:24:58;23.60;99.90
39925;DHT22;25592;49.986;11.618;2022-10-17T11:27:45;23.60;99.90
39925;DHT22;25592;49.986;11.618;2022-10-17T11:30:39;23.60;99.90
39925;DHT22;25592;49.986;11.618;2022-10-17T11:36:31;23.90;99.90
39925;DHT22;25592;49.986;11.618;2022-10-17T11:42:29;24.10;99.90
39925;DHT22;25592;49.986;11.618;2022-10-17T11:45:19;23.90;99.90
39925;DHT22;25592;49.986;11.618;2022-10-17T11:48:23;24.00;99.90
39925;DHT22;25592;49.986;11.618;2022-10-17T11:51:12;24.00;99.90
39925;DHT22;25592;49.986;11.618;2022-10-17T11:54:47;24.20;99.90
39925;DHT22;25592;49.986;11.618;2022-10-17T12:11:02;24.40;99.00
39925;DHT22;25592;49.986;11.618;2022-10-17T12:13:53;24.60;99.50
39925;DHT22;25592;49.986;11.618;2022-10-17T12:16:43;24.50;98.40
39925;DHT22;25592;49.986;11.618;2022-10-17T12:19:36;24.60;98.80
39925;DHT22;25592;49.986;11.618;2022-10-17T12:22:23;24.50;98.60
39925;DHT22;25592;49.986;11.618;2022-10-17T12:25:19;24.50;98.20
39925;DHT22;25592;49.986;11.618;2022-10-17T12:30:56;24.40;98.30
39925;DHT22;25592;49.986;11.618;2022-10-17T12:42:01;24.80;98.10
39925;DHT22;25592;49.986;11.618;2022-10-17T12:44:47;24.80;98.30
39925;DHT22;25592;49.986;11.618;2022-10-17T12:47:37;24.80;98.10
39925;DHT22;25592;49.986;11.618;2022-10-17T12:54:11;24.90;98.10
39925;DHT22;25592;49.986;11.618;2022-10-17T12:56:57;25.00;97.80
39925;DHT22;25592;49.986;11.618;2022-10-17T12:59:42;25.00;97.70
39925;DHT22;25592;49.986;11.618;2022-10-17T13:02:29;25.00;97.80
39925;DHT22;25592;49.986;11.618;2022-10-17T13:05:23;25.10;97.50
39925;DHT22;25592;49.986;11.618;2022-10-17T13:08:17;25.10;97.10
39925;DHT22;25592;49.986;11.618;2022-10-17T13:11:04;25.10;96.90
39925;DHT22;25592;49.986;11.618;2022-10-17T13:13:52;25.00;97.20
39925;DHT22;25592;49.986;11.618;2022-10-17T13:16:49;25.00;97.40
39925;DHT22;25592;49.986;11.618;2022-10-17T13:19:41;25.00;97.30
39925;DHT22;25592;49.986;11.618;2022-10-17T13:22:29;25.00;97.30
39925;DHT22;25592;49.986;11.618;2022-10-17T13:25:17;25.00;97.80
39925;DHT22;25592;49.986;11.618;2022-10-17T13:28:06;25.30;97.40
39925;DHT22;25592;49.986;11.618;2022-10-17T13:30:52;25.30;97.20
39925;DHT22;25592;49.986;11.618;2022-10-17T13:33:40;25.30;97.20
39925;DHT22;25592;49.986;11.618;2022-10-17T13:36:27;25.20;96.90
39925;DHT22;25592;49.986;11.618;2022-10-17T13:39:17;25.20;97.10
39925;DHT22;25592;49.986;11.618;2022-10-17T13:42:23;25.40;97.30
39925;DHT22;25592;49.986;11.618;2022-10-17T13:45:31;25.50;97.30
39925;DHT22;25592;49.986;11.618;2022-10-17T13:48:24;25.60;97.10
39925;DHT22;25592;49.986;11.618;2022-10-17T13:51:11;25.80;96.80
39925;DHT22;25592;49.986;11.618;2022-10-17T13:53:57;25.80;96.50
39925;DHT22;25592;49.986;11.618;2022-10-17T13:56:42;25.90;96.40
39925;DHT22;25592;49.986;11.618;2022-10-17T13:59:38;25.90;95.80
39925;DHT22;25592;49.986;11.618;2022-10-17T14:02:26;25.90;96.00
39925;DHT22;25592;49.986;11.618;2022-10-17T14:05:15;25.80;96.00
39925;DHT22;25592;49.986;11.618;2022-10-17T14:08:03;25.90;95.90
39925;DHT22;25592;49.986;11.618;2022-10-17T14:10:57;25.90;95.80
39925;DHT22;25592;49.986;11.618;2022-10-17T14:13:47;25.90;95.50
39925;DHT22;25592;49.986;11.618;2022-10-17T14:16:39;26.10;95.60
39925;DHT22;25592;49.986;11.618;2022-10-17T14:19:27;25.90;95.40
39925;DHT22;25592;49.986;11.618;2022-10-17T14:25:29;25.90;95.50
39925;DHT22;25592;49.986;11.618;2022-10-17T14:28:15;25.90;95.60
39925;DHT22;25592;49.986;11.618;2022-10-17T14:31:29;25.90;95.50
39925;DHT22;25592;49.986;11.618;2022-10-17T14:34:21;25.90;95.40
39925;DHT22;25592;49.986;11.618;2022-10-17T14:40:23;25.90;94.90
39925;DHT22;25592;49.986;11.618;2022-10-17T14:43:19;25.90;94.50
39925;DHT22;25592;49.986;11.618;2022-10-17T14:46:05;25.90;94.30
39925;DHT22;25592;49.986;11.618;2022-10-17T14:49:01;25.90;94.30
39925;DHT22;25592;49.986;11.618;2022-10-17T14:52:10;25.80;93.70
39925;DHT22;25592;49.986;11.618;2022-10-17T14:55:24;25.80;93.40
39925;DHT22;25592;49.986;11.618;2022-10-17T14:58:20;25.70;93.50
39925;DHT22;25592;49.986;11.618;2022-10-17T15:01:06;25.70;94.20
39925;DHT22;25592;49.986;11.618;2022-10-17T15:03:52;25.60;93.60
39925;DHT22;25592;49.986;11.618;2022-10-17T15:06:37;25.50;93.80
39925;DHT22;25592;49.986;11.618;2022-10-17T15:09:24;25.60;94.10
39925;DHT22;25592;49.986;11.618;2022-10-17T15:12:14;25.70;93.70
39925;DHT22;25592;49.986;11.618;2022-10-17T15:15:00;25.50;94.00
39925;DHT22;25592;49.986;11.618;2022-10-17T15:17:46;25.70;94.10
39925;DHT22;25592;49.986;11.618;2022-10-17T15:20:32;25.60;94.10
39925;DHT22;25592;49.986;11.618;2022-10-17T15:23:18;25.60;94.10
39925;DHT22;25592;49.986;11.618;2022-10-17T15:26:14;25.80;94.20
39925;DHT22;25592;49.986;11.618;2022-10-17T15:29:00;25.80;94.30
39925;DHT22;25592;49.986;11.618;2022-10-17T15:31:46;25.90;93.70
39925;DHT22;25592;49.986;11.618;2022-10-17T15:34:32;25.70;94.20
39925;DHT22;25592;49.986;11.618;2022-10-17T15:37:23;25.70;94.50
39925;DHT22;25592;49.986;11.618;2022-10-17T15:40:21;25.80;94.80
39925;DHT22;25592;49.986;11.618;2022-10-17T15:43:08;25.70;94.80
39925;DHT22;25592;49.986;11.618;2022-10-17T15:45:53;25.70;95.10
39925;DHT22;25592;49.986;11.618;2022-10-17T15:48:39;25.70;95.00
39925;DHT22;25592;49.986;11.618;2022-10-17T15:51:25;25.50;95.30
39925;DHT22;25592;49.986;11.618;2022-10-17T15:54:10;25.50;95.60
39925;DHT22;25592;49.986;11.618;2022-10-17T15:56:57;25.30;95.50
39925;DHT22;25592;49.986;11.618;2022-10-17T15:59:42;25.20;95.50
39925;DHT22;25592;49.986;11.618;2022-10-17T16:02:30;25.10;95.90
39925;DHT22;25592;49.986;11.618;2022-10-17T16:05:22;25.00;95.90
39925;DHT22;25592;49.986;11.618;2022-10-17T16:08:09;24.70;95.80
39925;DHT22;25592;49.986;11.618;2022-10-17T16:10:55;24.60;96.50
39925;DHT22;25592;49.986;11.618;2022-10-17T16:13:41;24.50;96.50
39925;DHT22;25592;49.986;11.618;2022-10-17T16:16:27;24.50;96.70
39925;DHT22;25592;49.986;11.618;2022-10-17T16:19:12;24.40;96.60
39925;DHT22;25592;49.986;11.618;2022-10-17T16:21:58;24.30;96.50
39925;DHT22;25592;49.986;11.618;2022-10-17T16:24:48;24.20;96.90
39925;DHT22;25592;49.986;11.618;2022-10-17T16:27:35;24.00;97.20
39925;DHT22;25592;49.986;11.618;2022-10-17T16:30:23;23.90;97.30
39925;DHT22;25592;49.986;11.618;2022-10-17T16:33:09;23.80;97.40
39925;DHT22;25592;49.986;11.618;2022-10-17T16:35:57;23.80;97.60
39925;DHT22;25592;49.986;11.618;2022-10-17T16:38:42;23.60;97.70
39925;DHT22;25592;49.986;11.618;2022-10-17T16:41:31;23.50;97.60
39925;DHT22;25592;49.986;11.618;2022-10-17T16:44:16;23.40;97.70
39925;DHT22;25592;49.986;11.618;2022-10-17T16:47:02;23.30;97.90
39925;DHT22;25592;49.986;11.618;2022-10-17T16:49:47;23.20;97.90
39925;DHT22;25592;49.986;11.618;2022-10-17T16:52:33;23.10;98.10
39925;DHT22;25592;49.986;11.618;2022-10-17T16:55:18;23.10;98.30
39925;DHT22;25592;49.986;11.618;2022-10-17T16:58:04;23.10;98.40
39925;DHT22;25592;49.986;11.618;2022-10-17T17:00:50;23.00;98.50
39925;DHT22;25592;49.986;11.618;2022-10-17T17:03:40;22.90;98.60
39925;DHT22;25592;49.986;11.618;2022-10-17T17:06:27;22.80;98.70
39925;DHT22;25592;49.986;11.618;2022-10-17T17:09:13;22.80;98.90
39925;DHT22;25592;49.986;11.618;2022-10-17T17:11:58;22.70;99.00
39925;DHT22;25592;49.986;11.618;2022-10-17T17:14:43;22.60;99.00
39925;DHT22;25592;49.986;11.618;2022-10-17T17:17:29;22.60;99.20
39925;DHT22;25592;49.986;11.618;2022-10-17T17:20:34;22.60;99.30
39925;DHT22;25592;49.986;11.618;2022-10-17T17:23:20;22.40;99.40
39925;DHT22;25592;49.986;11.618;2022-10-17T17:26:17;22.50;99.50
39925;DHT22;25592;49.986;11.618;2022-10-17T17:29:03;22.40;99.60
39925;DHT22;25592;49.986;11.618;2022-10-17T17:31:50;22.30;99.70
39925;DHT22;25592;49.986;11.618;2022-10-17T17:34:36;22.30;99.70
39925;DHT22;25592;49.986;11.618;2022-10-17T17:37:21;22.20;99.90
39925;DHT22;25592;49.986;11.618;2022-10-17T17:40:07;22.20;99.90
39925;DHT22;25592;49.986;11.618;2022-10-17T17:42:53;22.20;99.80
39925;DHT22;25592;49.986;11.618;2022-10-17T17:45:38;22.10;99.90
39925;DHT22;25592;49.986;11.618;2022-10-17T17:48:24;22.00;99.90
39925;DHT22;25592;49.986;11.618;2022-10-17T17:51:12;22.00;99.90
39925;DHT22;25592;49.986;11.618;2022-10-17T17:53:58;21.90;99.90
39925;DHT22;25592;49.986;11.618;2022-10-17T17:56:43;21.90;99.90
39925;DHT22;25592;49.986;11.618;2022-10-17T17:59:28;21.90;99.90
39925;DHT22;25592;49.986;11.618;2022-10-17T18:02:15;21.80;99.90
39925;DHT22;25592;49.986;11.618;2022-10-17T18:05:00;21.80;99.90
39925;DHT22;25592;49.986;11.618;2022-10-17T18:07:46;21.70;99.90
39925;DHT22;25592;49.986;11.618;2022-10-17T18:10:31;21.60;99.90
39925;DHT22;25592;49.986;11.618;2022-10-17T18:13:17;21.60;99.90
39925;DHT22;25592;49.986;11.618;2022-10-17T18:16:03;21.60;99.90
39925;DHT22;25592;49.986;11.618;2022-10-17T18:18:56;21.60;99.90
39925;DHT22;25592;49.986;11.618;2022-10-17T18:21:49;21.50;99.90
39925;DHT22;25592;49.986;11.618;2022-10-17T18:24:34;21.40;99.90
39925;DHT22;25592;49.986;11.618;2022-10-17T18:27:20;21.40;99.90
39925;DHT22;25592;49.986;11.618;2022-10-17T18:30:06;21.40;99.90
39925;DHT22;25592;49.986;11.618;2022-10-17T18:32:52;21.30;99.90
39925;DHT22;25592;49.986;11.618;2022-10-17T18:35:38;21.40;99.90
39925;DHT22;25592;49.986;11.618;2022-10-17T18:38:23;21.30;99.90
39925;DHT22;25592;49.986;11.618;2022-10-17T18:41:11;21.30;99.90
39925;DHT22;25592;49.986;11.618;2022-10-17T18:43:57;21.30;99.90
39925;DHT22;25592;49.986;11.618;2022-10-17T18:46:42;21.30;99.90
39925;DHT22;25592;49.986;11.618;2022-10-17T18:49:29;21.20;99.90
39925;DHT22;25592;49.986;11.618;2022-10-17T18:52:15;21.20;99.90
39925;DHT22;25592;49.986;11.618;2022-10-17T18:55:00;21.30;99.90
39925;DHT22;25592;49.986;11.618;2022-10-17T18:57:46;21.20;99.90